General Aviation Weather

Text Reports

Enter one or more of the following location identifiers separated by a space:

Zip Code, Four-Character ICAO or Three-Character IATA airport codes.

METAR - Aviation Routine Weather Report
KCGE - Cambridge, Maryland
Updated at 6:53 PM GMT on July 29, 2014 (2:53 PM EDT):
METAR KCGE 291853Z AUTO 28009G15KT 250V320 10SM SCT050 25/11 A2993 RMK AO1
TAF - Terminal Area Forecast
KCGE - Cambridge, Maryland
Updated at 6:53 PM GMT on July 29, 2014 (2:53 PM EDT):
No TAF is currently available for this location.
Decoded:
No decoded TAF is available.
PIREP - Pilot Weather Report
KCGE - Cambridge, Maryland
Updated at 6:53 PM GMT on July 29, 2014 (2:53 PM EDT):
No PIREP is currently available for this location.
AIRMET - Airmens Meteorological Information
KCGE - Cambridge, Maryland
Updated at 6:53 PM GMT on July 29, 2014 (2:53 PM EDT):
No AIRMET is currently available for this location.
SIGMET - Significant Meteorological Information
KCGE - Cambridge, Maryland
Updated at 6:53 PM GMT on July 29, 2014 (2:53 PM EDT):
No SIGMET is currently available for this location.
NOTAM - Notice to Airmen
KCGE - Cambridge, Maryland
Updated at 6:53 PM GMT on July 29, 2014 (2:53 PM EDT):
No NOTAM is currently available for this location.
Forecast Area
KCGE - Cambridge, Maryland
Updated at 6:53 PM GMT on July 29, 2014 (2:53 PM EDT):
No NOTAM is currently available for this location.
Aviation Weather Maps